Time;durP1;ratioP1;P1;durP2;ratioP2;P2;SDS_P1;SDS_P2;PMS_P1;PMS_P2;Temp;Humidity;BMP_temperature;BMP_pressure;BME280_temperature;BME280_humidity;BME280_pressure;Samples;Min_cycle;Max_cycle;Signal;HPM_P1;HPM_P2
2024/01/14 04:12:39;;;;;;;43.55;17.20;;;;;;;;;;10516695;27;1970916;-77
2024/01/14 04:17:39;;;;;;;38.22;15.38;;;;;;;;;;10540059;28;20055;-75
2024/01/14 04:22:41;;;;;;;38.80;15.73;;;;;;;;;;10524182;28;20034;-75
2024/01/14 04:27:44;;;;;;;42.13;16.20;;;;;;;;;;10536675;28;20038;-77
2024/01/14 04:32:44;;;;;;;36.53;15.70;;;;;;;;;;10532348;28;20055;-76
2024/01/14 04:37:44;;;;;;;36.03;15.35;;;;;;;;;;10520227;28;20305;-75
2024/01/14 04:42:45;;;;;;;33.03;14.47;;;;;;;;;;10536349;28;20047;-76
2024/01/14 04:47:46;;;;;;;38.67;15.57;;;;;;;;;;10510815;28;20384;-75
2024/01/14 04:52:48;;;;;;;39.13;16.33;;;;;;;;;;10532912;28;20470;-77
2024/01/14 04:57:49;;;;;;;41.78;15.50;;;;;;;;;;10532363;28;20044;-76
2024/01/14 05:02:50;;;;;;;39.50;14.77;;;;;;;;;;10507303;28;20048;-76
2024/01/14 05:07:50;;;;;;;42.30;15.10;;;;;;;;;;10531189;28;20401;-76
2024/01/14 05:12:52;;;;;;;41.77;15.73;;;;;;;;;;10526996;28;20048;-76
2024/01/14 05:17:52;;;;;;;41.20;14.57;;;;;;;;;;10535681;28;20290;-80
2024/01/14 05:22:52;;;;;;;39.15;15.73;;;;;;;;;;10500582;28;20055;-75
2024/01/14 05:27:54;;;;;;;37.75;14.77;;;;;;;;;;10497097;28;20044;-76
2024/01/14 05:32:54;;;;;;;31.87;14.53;;;;;;;;;;10503638;28;20071;-75
2024/01/14 05:37:55;;;;;;;31.45;13.65;;;;;;;;;;10491904;28;20281;-76
2024/01/14 05:42:55;;;;;;;31.00;13.95;;;;;;;;;;10482060;28;20680;-76
2024/01/14 05:47:56;;;;;;;38.42;14.38;;;;;;;;;;10495171;28;20044;-77
2024/01/14 05:52:57;;;;;;;37.10;14.90;;;;;;;;;;10494974;28;20077;-76
2024/01/14 05:57:57;;;;;;;36.30;13.80;;;;;;;;;;10479802;28;20289;-77
2024/01/14 06:02:58;;;;;;;36.95;13.43;;;;;;;;;;10493262;28;20101;-77
2024/01/14 06:07:58;;;;;;;41.33;14.57;;;;;;;;;;10497179;28;20463;-74
2024/01/14 06:12:59;;;;;;;36.63;14.18;;;;;;;;;;10478541;28;20047;-76
2024/01/14 06:18:00;;;;;;;36.88;14.57;;;;;;;;;;10501810;28;20487;-76
2024/01/14 06:23:00;;;;;;;38.13;14.30;;;;;;;;;;10495614;28;20055;-75
2024/01/14 06:28:02;;;;;;;41.77;14.23;;;;;;;;;;10485810;28;20588;-74
2024/01/14 06:33:03;;;;;;;33.67;12.95;;;;;;;;;;10506564;28;20137;-76
2024/01/14 06:38:03;;;;;;;38.85;14.25;;;;;;;;;;10497525;28;20094;-77
2024/01/14 06:43:04;;;;;;;41.17;14.38;;;;;;;;;;10507968;28;20043;-77
2024/01/14 06:48:04;;;;;;;33.17;14.32;;;;;;;;;;10512678;28;20052;-76
2024/01/14 06:53:05;;;;;;;36.83;15.13;;;;;;;;;;10496014;28;20044;-77
2024/01/14 06:58:05;;;;;;;45.33;15.02;;;;;;;;;;10499034;28;20610;-75
2024/01/14 07:03:06;;;;;;;35.05;13.32;;;;;;;;;;10492414;28;20036;-78
2024/01/14 07:08:06;;;;;;;38.08;13.27;;;;;;;;;;10497907;28;20437;-77
2024/01/14 07:13:07;;;;;;;37.28;13.63;;;;;;;;;;10496329;28;20070;-75
2024/01/14 07:18:07;;;;;;;32.28;13.30;;;;;;;;;;10487191;28;20104;-75
2024/01/14 07:23:07;;;;;;;29.97;12.23;;;;;;;;;;10497895;28;20032;-76
2024/01/14 07:28:08;;;;;;;31.10;13.82;;;;;;;;;;10496519;28;20093;-79
2024/01/14 07:33:08;;;;;;;28.97;13.33;;;;;;;;;;10498691;28;20039;-74
2024/01/14 07:38:08;;;;;;;34.88;13.48;;;;;;;;;;10483295;28;21132;-75
2024/01/14 07:43:09;;;;;;;35.13;13.30;;;;;;;;;;10494240;28;20036;-76
2024/01/14 07:48:09;;;;;;;35.43;13.20;;;;;;;;;;10474467;28;20039;-76
2024/01/14 07:53:09;;;;;;;29.65;13.05;;;;;;;;;;10480763;28;20378;-79
2024/01/14 07:58:11;;;;;;;31.00;13.88;;;;;;;;;;10473882;28;20169;-78
2024/01/14 08:03:12;;;;;;;29.65;11.88;;;;;;;;;;10491806;28;20139;-76
2024/01/14 08:08:12;;;;;;;32.72;13.20;;;;;;;;;;10462516;28;20036;-79
2024/01/14 08:13:12;;;;;;;31.37;11.70;;;;;;;;;;10497793;28;20028;-76
2024/01/14 08:18:13;;;;;;;27.58;12.60;;;;;;;;;;10489641;28;20297;-76
2024/01/14 08:23:13;;;;;;;30.80;11.90;;;;;;;;;;10494481;28;20556;-77
2024/01/14 08:28:14;;;;;;;29.80;13.27;;;;;;;;;;10499934;28;20040;-77
2024/01/14 08:33:14;;;;;;;32.78;13.43;;;;;;;;;;10461102;28;20041;-75
2024/01/14 08:38:14;;;;;;;27.47;10.03;;;;;;;;;;10501099;28;20314;-76
2024/01/14 08:43:15;;;;;;;32.38;12.38;;;;;;;;;;10494294;28;20126;-77
2024/01/14 08:48:15;;;;;;;33.40;12.77;;;;;;;;;;10487899;28;20056;-74
2024/01/14 08:53:15;;;;;;;27.95;11.48;;;;;;;;;;10495153;28;20133;-77
2024/01/14 08:58:16;;;;;;;30.63;11.67;;;;;;;;;;10483645;28;20059;-76
2024/01/14 09:03:17;;;;;;;27.67;11.67;;;;;;;;;;10497653;28;20294;-77
2024/01/14 09:08:17;;;;;;;29.52;12.23;;;;;;;;;;10493145;28;20132;-76
2024/01/14 09:13:18;;;;;;;27.92;12.70;;;;;;;;;;10501168;28;20750;-76
2024/01/14 09:18:18;;;;;;;33.87;13.57;;;;;;;;;;10489882;28;20280;-79
2024/01/14 09:23:19;;;;;;;29.27;12.55;;;;;;;;;;10471264;28;20297;-78
2024/01/14 09:28:19;;;;;;;25.92;10.68;;;;;;;;;;10509418;28;20032;-76
2024/01/14 09:33:19;;;;;;;26.50;11.07;;;;;;;;;;10506423;28;20044;-76
2024/01/14 09:38:20;;;;;;;28.13;11.00;;;;;;;;;;10501261;28;20060;-75
2024/01/14 09:43:20;;;;;;;28.50;10.40;;;;;;;;;;10511851;28;20294;-78
2024/01/14 09:48:21;;;;;;;24.33;10.80;;;;;;;;;;10498809;28;20391;-76
2024/01/14 09:53:21;;;;;;;28.23;10.73;;;;;;;;;;10478398;28;20032;-78
2024/01/14 09:58:22;;;;;;;27.45;12.00;;;;;;;;;;10502550;28;20029;-77
2024/01/14 10:03:24;;;;;;;24.85;11.48;;;;;;;;;;10501134;28;20078;-77
2024/01/14 10:08:24;;;;;;;25.67;11.30;;;;;;;;;;10497953;28;20063;-78
2024/01/14 10:13:25;;;;;;;22.10;10.15;;;;;;;;;;10497448;28;20840;-76
2024/01/14 10:18:25;;;;;;;21.45;10.38;;;;;;;;;;10483734;28;20058;-75
2024/01/14 10:23:25;;;;;;;24.10;10.85;;;;;;;;;;10487489;28;20048;-77
2024/01/14 10:28:26;;;;;;;24.58;10.35;;;;;;;;;;10487984;28;20054;-75
2024/01/14 10:33:30;;;;;;;27.85;10.68;;;;;;;;;;10495727;28;20132;-77
2024/01/14 10:38:30;;;;;;;24.20;10.38;;;;;;;;;;10495158;28;20039;-77
2024/01/14 10:43:33;;;;;;;26.58;10.07;;;;;;;;;;10475540;28;20033;-76
2024/01/14 10:48:36;;;;;;;25.13;10.82;;;;;;;;;;10503982;28;20032;-76
2024/01/14 10:53:41;;;;;;;21.05;9.68;;;;;;;;;;10481175;28;20075;-77
2024/01/14 10:58:42;;;;;;;23.83;10.07;;;;;;;;;;10477059;28;20069;-79
2024/01/14 11:03:43;;;;;;;27.55;9.93;;;;;;;;;;10488663;28;20041;-83
2024/01/14 11:08:43;;;;;;;24.13;10.38;;;;;;;;;;10468860;28;20051;-79
2024/01/14 11:13:55;;;;;;;22.97;10.13;;;;;;;;;;10465563;28;20028;-78
2024/01/14 11:19:01;;;;;;;24.88;9.77;;;;;;;;;;10502430;28;20754;-75
2024/01/14 11:24:01;;;;;;;26.48;10.95;;;;;;;;;;10487692;28;20089;-78
2024/01/14 11:29:03;;;;;;;25.40;10.60;;;;;;;;;;10507337;28;20123;-76
2024/01/14 11:34:03;;;;;;;24.38;11.27;;;;;;;;;;10496708;28;20044;-75
2024/01/14 11:39:05;;;;;;;24.83;9.57;;;;;;;;;;10494717;28;20109;-76
2024/01/14 11:44:09;;;;;;;20.02;8.95;;;;;;;;;;10493400;28;20776;-77
2024/01/14 11:49:10;;;;;;;22.15;9.70;;;;;;;;;;10495749;28;20097;-78
2024/01/14 11:54:11;;;;;;;23.35;10.13;;;;;;;;;;10477793;28;20534;-75
2024/01/14 11:59:13;;;;;;;22.00;10.20;;;;;;;;;;10469956;28;20036;-76
2024/01/14 12:04:13;;;;;;;23.98;10.18;;;;;;;;;;10512260;28;20051;-77
2024/01/14 12:09:14;;;;;;;22.27;9.88;;;;;;;;;;10479270;28;20055;-75
2024/01/14 12:14:14;;;;;;;23.08;9.82;;;;;;;;;;10471412;28;20063;-76
2024/01/14 12:19:18;;;;;;;26.33;10.95;;;;;;;;;;10478705;28;20032;-74
2024/01/14 12:24:19;;;;;;;24.33;10.93;;;;;;;;;;10482004;28;20044;-75
2024/01/14 12:29:19;;;;;;;23.93;10.07;;;;;;;;;;10500158;28;20040;-76
2024/01/14 12:34:19;;;;;;;25.40;10.77;;;;;;;;;;10505746;28;20305;-75
2024/01/14 12:39:20;;;;;;;23.83;11.00;;;;;;;;;;10506309;28;20416;-77
2024/01/14 12:44:20;;;;;;;29.52;10.57;;;;;;;;;;10491086;28;20282;-77
2024/01/14 12:49:21;;;;;;;27.92;11.23;;;;;;;;;;10503465;28;20570;-74
2024/01/14 12:54:22;;;;;;;22.53;9.60;;;;;;;;;;10500775;28;20054;-73
2024/01/14 12:59:22;;;;;;;26.03;11.27;;;;;;;;;;10485234;28;20547;-73
2024/01/14 13:04:26;;;;;;;22.13;9.48;;;;;;;;;;10501997;28;20289;-75
2024/01/14 13:09:27;;;;;;;28.52;12.85;;;;;;;;;;10485717;28;20661;-76
2024/01/14 13:14:28;;;;;;;21.45;9.15;;;;;;;;;;10501208;28;20040;-76
2024/01/14 13:19:29;;;;;;;22.95;10.23;;;;;;;;;;10487858;28;20048;-77
2024/01/14 13:24:29;;;;;;;21.20;9.00;;;;;;;;;;10480853;28;20040;-73
2024/01/14 13:29:29;;;;;;;24.10;10.20;;;;;;;;;;10484073;28;20294;-74
2024/01/14 13:34:30;;;;;;;17.73;8.47;;;;;;;;;;10497756;28;20048;-75
2024/01/14 13:39:30;;;;;;;19.00;8.60;;;;;;;;;;10496876;28;20285;-74
2024/01/14 13:44:30;;;;;;;19.13;8.52;;;;;;;;;;10474885;28;20325;-74
2024/01/14 13:49:31;;;;;;;19.17;9.35;;;;;;;;;;10495626;28;20117;-74
2024/01/14 13:54:31;;;;;;;20.40;10.00;;;;;;;;;;10496743;28;20043;-76
2024/01/14 13:59:33;;;;;;;21.47;9.37;;;;;;;;;;10474651;28;20196;-76
2024/01/14 14:04:34;;;;;;;24.52;10.05;;;;;;;;;;10492016;28;20285;-80
2024/01/14 14:09:34;;;;;;;21.05;10.07;;;;;;;;;;10479974;28;20059;-76
2024/01/14 14:14:34;;;;;;;20.50;9.95;;;;;;;;;;10494874;28;20302;-75
2024/01/14 14:19:35;;;;;;;19.60;10.00;;;;;;;;;;10500948;28;20044;-77
2024/01/14 14:24:35;;;;;;;22.75;9.82;;;;;;;;;;10481737;28;20047;-76
2024/01/14 14:29:36;;;;;;;28.52;10.35;;;;;;;;;;10497752;28;20040;-75
2024/01/14 14:34:36;;;;;;;23.75;10.27;;;;;;;;;;10503579;28;20119;-74
2024/01/14 14:39:36;;;;;;;24.17;10.93;;;;;;;;;;10508906;28;20032;-75
2024/01/14 14:44:37;;;;;;;26.10;11.57;;;;;;;;;;10483674;28;20433;-76
2024/01/14 14:49:37;;;;;;;23.55;10.70;;;;;;;;;;10499453;28;20294;-78
2024/01/14 14:54:38;;;;;;;23.65;10.02;;;;;;;;;;10496590;28;20048;-74
2024/01/14 14:59:38;;;;;;;21.60;9.73;;;;;;;;;;10496927;28;20051;-75
2024/01/14 15:04:39;;;;;;;22.40;11.30;;;;;;;;;;10508562;28;20719;-78
2024/01/14 15:09:39;;;;;;;21.33;9.93;;;;;;;;;;10496072;28;20047;-74
2024/01/14 15:14:39;;;;;;;18.60;10.50;;;;;;;;;;10491621;28;20044;-77
2024/01/14 15:19:40;;;;;;;23.75;9.63;;;;;;;;;;10501226;28;20506;-79
2024/01/14 15:24:40;;;;;;;23.55;10.60;;;;;;;;;;10494731;28;20036;-74
2024/01/14 15:29:40;;;;;;;24.00;10.77;;;;;;;;;;10472855;28;20119;-78
2024/01/14 15:34:43;;;;;;;20.67;9.50;;;;;;;;;;10500992;28;20344;-76
2024/01/14 15:39:43;;;;;;;20.70;10.65;;;;;;;;;;10475457;28;20044;-75
2024/01/14 15:44:43;;;;;;;23.08;9.90;;;;;;;;;;10479668;28;20850;-75
2024/01/14 15:49:44;;;;;;;21.88;9.63;;;;;;;;;;10496668;28;20510;-75
2024/01/14 15:54:44;;;;;;;22.43;10.43;;;;;;;;;;10492928;28;20071;-77
2024/01/14 15:59:44;;;;;;;28.13;12.88;;;;;;;;;;10474731;28;20785;-75
2024/01/14 16:04:45;;;;;;;24.08;10.90;;;;;;;;;;10491869;28;20071;-75
2024/01/14 16:09:45;;;;;;;24.30;11.13;;;;;;;;;;10483659;28;20064;-74
2024/01/14 16:14:46;;;;;;;23.53;11.77;;;;;;;;;;10486931;28;20097;-75
2024/01/14 16:19:46;;;;;;;27.08;11.95;;;;;;;;;;10497664;28;20296;-75
2024/01/14 16:24:46;;;;;;;23.03;10.20;;;;;;;;;;10494760;28;20510;-76
2024/01/14 16:29:47;;;;;;;26.63;11.73;;;;;;;;;;10485245;28;20321;-78
2024/01/14 16:34:48;;;;;;;27.80;13.57;;;;;;;;;;10500924;28;20024;-75
2024/01/14 16:39:48;;;;;;;32.13;16.13;;;;;;;;;;10491845;28;20085;-78
2024/01/14 16:44:48;;;;;;;35.25;16.70;;;;;;;;;;10491435;28;20087;-78
2024/01/14 16:49:49;;;;;;;33.30;14.80;;;;;;;;;;10496711;28;20044;-76
2024/01/14 16:54:49;;;;;;;29.63;14.50;;;;;;;;;;10491869;28;20297;-74
2024/01/14 16:59:50;;;;;;;29.67;13.65;;;;;;;;;;10494590;28;20063;-75
2024/01/14 17:04:50;;;;;;;24.17;13.00;;;;;;;;;;10476502;28;20066;-74
2024/01/14 17:09:52;;;;;;;30.80;14.95;;;;;;;;;;10490023;28;20079;-76
2024/01/14 17:14:52;;;;;;;31.60;14.82;;;;;;;;;;10493885;28;20036;-75
2024/01/14 17:19:52;;;;;;;31.40;15.25;;;;;;;;;;10482552;28;20973;-75
2024/01/14 17:24:53;;;;;;;27.70;12.77;;;;;;;;;;10510202;28;20070;-77
2024/01/14 17:29:53;;;;;;;29.08;14.27;;;;;;;;;;10511604;28;20371;-75
2024/01/14 17:34:54;;;;;;;26.73;13.50;;;;;;;;;;10504129;28;20056;-77
2024/01/14 17:39:54;;;;;;;25.23;12.20;;;;;;;;;;10483976;28;20041;-75
2024/01/14 17:44:55;;;;;;;34.65;16.17;;;;;;;;;;10502931;28;20288;-76
2024/01/14 17:49:55;;;;;;;36.97;16.93;;;;;;;;;;10499402;28;20472;-77
2024/01/14 17:54:56;;;;;;;35.47;18.37;;;;;;;;;;10497490;28;20377;-77
2024/01/14 17:59:56;;;;;;;43.92;21.55;;;;;;;;;;10495923;28;20286;-75
2024/01/14 18:04:58;;;;;;;49.53;25.88;;;;;;;;;;10466983;28;20039;-78
2024/01/14 18:09:58;;;;;;;53.80;25.13;;;;;;;;;;10506930;28;20044;-76
2024/01/14 18:14:58;;;;;;;49.13;25.13;;;;;;;;;;10501707;28;20286;-75
2024/01/14 18:19:59;;;;;;;51.40;24.80;;;;;;;;;;10497775;28;20040;-77
2024/01/14 18:24:59;;;;;;;53.67;24.90;;;;;;;;;;10499789;28;20287;-74
2024/01/14 18:29:59;;;;;;;55.25;24.55;;;;;;;;;;10498088;28;20309;-78
2024/01/14 18:35:00;;;;;;;49.57;23.53;;;;;;;;;;10497757;28;20036;-75
2024/01/14 18:40:00;;;;;;;42.70;20.60;;;;;;;;;;10498431;28;20036;-75
2024/01/14 18:45:01;;;;;;;39.53;20.52;;;;;;;;;;10481698;28;20044;-75
2024/01/14 18:50:03;;;;;;;36.78;20.48;;;;;;;;;;10500314;28;20409;-78
2024/01/14 18:55:08;;;;;;;36.63;18.50;;;;;;;;;;10499444;28;20754;-75
2024/01/14 19:00:09;;;;;;;35.03;16.77;;;;;;;;;;10499427;28;20044;-75
2024/01/14 19:05:11;;;;;;;39.13;17.70;;;;;;;;;;10496315;28;20176;-75
2024/01/14 19:10:12;;;;;;;36.42;17.83;;;;;;;;;;10496227;28;20053;-76
2024/01/14 19:15:12;;;;;;;32.60;16.20;;;;;;;;;;10494017;28;20089;-76
2024/01/14 19:20:13;;;;;;;38.00;17.63;;;;;;;;;;10478808;28;20697;-74
2024/01/14 19:25:14;;;;;;;39.80;19.30;;;;;;;;;;10461515;28;20093;-77
2024/01/14 19:30:15;;;;;;;40.50;20.20;;;;;;;;;;10500537;28;20028;-77
2024/01/14 19:35:15;;;;;;;39.58;18.52;;;;;;;;;;10499375;28;20037;-75
2024/01/14 19:40:16;;;;;;;41.50;21.17;;;;;;;;;;10498517;28;20059;-73
2024/01/14 19:45:16;;;;;;;40.72;18.75;;;;;;;;;;10485880;28;20336;-76
2024/01/14 19:50:16;;;;;;;33.45;17.35;;;;;;;;;;10483370;28;20543;-76
2024/01/14 19:55:17;;;;;;;39.70;19.77;;;;;;;;;;10496958;28;20358;-74
2024/01/14 20:00:18;;;;;;;42.88;20.42;;;;;;;;;;10498780;28;20990;-75
2024/01/14 20:05:18;;;;;;;52.35;22.63;;;;;;;;;;10484890;28;20032;-77
2024/01/14 20:10:19;;;;;;;50.67;25.40;;;;;;;;;;10499160;28;20560;-75
2024/01/14 20:15:19;;;;;;;50.97;24.23;;;;;;;;;;10497664;28;20032;-75
2024/01/14 20:20:19;;;;;;;46.85;23.17;;;;;;;;;;10476853;28;20287;-75
2024/01/14 20:25:20;;;;;;;47.00;22.65;;;;;;;;;;10488123;28;20052;-75
2024/01/14 20:30:22;;;;;;;49.15;21.33;;;;;;;;;;10496898;28;20111;-73
2024/01/14 20:35:23;;;;;;;48.55;23.05;;;;;;;;;;10484091;28;20040;-74
2024/01/14 20:40:23;;;;;;;40.22;20.33;;;;;;;;;;10479160;28;20067;-73
2024/01/14 20:45:24;;;;;;;45.70;22.02;;;;;;;;;;10489245;28;20573;-74
2024/01/14 20:50:24;;;;;;;47.10;23.15;;;;;;;;;;10491108;28;20044;-75
2024/01/14 20:55:25;;;;;;;51.42;24.05;;;;;;;;;;10486380;28;20032;-76
2024/01/14 21:00:25;;;;;;;50.75;24.60;;;;;;;;;;10506032;28;20047;-74
2024/01/14 21:05:25;;;;;;;47.38;22.67;;;;;;;;;;10495098;28;20150;-76
2024/01/14 21:10:26;;;;;;;50.27;24.43;;;;;;;;;;10485036;28;20044;-75
2024/01/14 21:15:27;;;;;;;45.55;21.00;;;;;;;;;;10506533;28;20293;-73
2024/01/14 21:20:27;;;;;;;47.95;19.83;;;;;;;;;;10498352;28;20025;-75
2024/01/14 21:25:27;;;;;;;44.57;18.87;;;;;;;;;;10483703;28;20058;-75
2024/01/14 21:30:28;;;;;;;49.27;18.23;;;;;;;;;;10501136;28;20860;-75
2024/01/14 21:35:28;;;;;;;52.57;19.20;;;;;;;;;;10487295;28;20284;-75
2024/01/14 21:40:28;;;;;;;47.40;19.20;;;;;;;;;;10502473;28;20301;-80
2024/01/14 21:45:29;;;;;;;40.83;17.73;;;;;;;;;;10498040;28;20110;-76
2024/01/14 21:50:29;;;;;;;43.00;17.38;;;;;;;;;;10473622;28;20032;-75
2024/01/14 21:55:43;;;;;;;48.55;19.98;;;;;;;;;;10472794;28;20062;-76
2024/01/14 22:00:43;;;;;;;45.47;18.10;;;;;;;;;;10478467;28;20031;-75
2024/01/14 22:05:44;;;;;;;45.17;19.23;;;;;;;;;;10418192;28;20047;-76
2024/01/14 22:10:44;;;;;;;49.43;19.17;;;;;;;;;;10472487;28;20611;-76
2024/01/14 22:15:44;;;;;;;58.70;20.27;;;;;;;;;;10453468;28;20849;-76
2024/01/14 22:20:45;;;;;;;52.53;20.40;;;;;;;;;;10473726;28;20025;-77
2024/01/14 22:25:45;;;;;;;57.97;19.80;;;;;;;;;;10475563;28;20489;-75
2024/01/14 22:30:46;;;;;;;56.50;21.23;;;;;;;;;;10476467;28;20136;-75
2024/01/14 22:35:47;;;;;;;51.60;19.20;;;;;;;;;;10466168;28;20032;-75
2024/01/14 22:40:47;;;;;;;66.40;20.98;;;;;;;;;;10474107;28;20039;-75
2024/01/14 22:45:47;;;;;;;58.97;20.17;;;;;;;;;;10476659;28;20044;-76
2024/01/14 22:50:48;;;;;;;61.73;19.83;;;;;;;;;;10477895;28;20381;-75
2024/01/14 22:55:48;;;;;;;55.70;21.03;;;;;;;;;;10474271;28;20413;-76
2024/01/14 23:00:48;;;;;;;53.83;20.40;;;;;;;;;;10474225;28;20285;-76
2024/01/14 23:05:49;;;;;;;53.58;20.35;;;;;;;;;;10469981;28;20378;-74
2024/01/14 23:10:49;;;;;;;58.80;20.73;;;;;;;;;;10458926;28;20143;-75
2024/01/14 23:15:50;;;;;;;62.15;19.95;;;;;;;;;;10458570;28;20131;-74
2024/01/14 23:20:50;;;;;;;49.95;18.83;;;;;;;;;;10456204;28;20032;-74
2024/01/14 23:25:50;;;;;;;59.17;20.13;;;;;;;;;;10436583;28;20043;-76
2024/01/14 23:30:51;;;;;;;46.90;17.55;;;;;;;;;;10461424;28;20106;-73
2024/01/14 23:35:52;;;;;;;44.30;17.30;;;;;;;;;;10426596;28;20127;-74
2024/01/14 23:40:52;;;;;;;49.63;17.40;;;;;;;;;;10440167;28;20045;-74
2024/01/14 23:45:52;;;;;;;54.73;17.47;;;;;;;;;;10454292;28;20295;-74
2024/01/14 23:50:53;;;;;;;43.90;16.17;;;;;;;;;;10433882;28;20405;-74
2024/01/14 23:55:53;;;;;;;46.20;16.48;;;;;;;;;;10455261;28;20230;-75
